Terminal Aerodrome Forecast
Issued by NWS

Current Version | Previous Version | Text Only | Print | Product List | Glossary On
Versions: 1 2 3 4 5 6 7 8 9 10 11 12 13 14 15 16 17 18 19 20 21 22 23 24 25 26 27 28 29 30 31 32 33 34
000
FTUS44 KOUN 011124
TAFGAG
TAF
KGAG 011124Z 0112/0212 15006KT 6SM BR OVC008
      TEMPO 0112/0114 5SM -PL OVC008
     FM012000 07006KT P6SM OVC008
     FM020600 02002KT 4SM BR OVC007=

USA.gov is the U.S. government's official web portal to all federal, state and local government web resources and services.